Orion, Michigan
Current Conditions -  °F | °C
As of 9:53 PM on Thursday 27 Nov 2014 (Local Time) from KPTK Reporting Station
Light Snow Light Snow  
Wind Chill: 10°   Ceiling: 3800
Heat Index: 23°   Visibility: 9mi
Dew Point: 10°   Wind: 16mph
Humidity: 58%   Direction: 310°NW
Pressure: 30.26"   Gusts: NA
Location:  42.7458°N, 83.2617°W
Report Text: KPTK 280253Z 31014KT 9SM -SN FEW029 OVC038 M05/M12 A3026 RMK AO2 SLP261 P0000 60000 T10501122 52017
Loading
Personal Weather Stations






























Interactive Weather Map New forecast layout! Learn more

10-Day Weather Forecast

Advertisements
Track Severe Weather on mobile